Time;durP1;ratioP1;P1;durP2;ratioP2;P2;SDS_P1;SDS_P2;PMS_P1;PMS_P2;Temp;Humidity;BMP_temperature;BMP_pressure;BME280_temperature;BME280_humidity;BME280_pressure;Samples;Min_cycle;Max_cycle;Signal;HPM_P1;HPM_P2
2022/09/30 00:02:51;;;;;;;;;;;8.40;99.90;;;;;;12483511;28;20295;-85
2022/09/30 00:08:53;;;;;;;;;;;8.50;99.90;;;;;;12481716;28;19971;-85
2022/09/30 00:14:55;;;;;;;;;;;8.50;99.90;;;;;;12468778;28;19941;-85
2022/09/30 00:20:57;;;;;;;;;;;8.30;99.90;;;;;;12484287;28;19929;-86
2022/09/30 00:26:58;;;;;;;;;;;8.50;99.90;;;;;;12470375;28;19936;-85
2022/09/30 00:33:00;;;;;;;;;;;8.20;99.90;;;;;;12479282;28;20401;-85
2022/09/30 00:39:02;;;;;;;;;;;8.20;99.90;;;;;;12473430;28;19930;-86
2022/09/30 00:45:04;;;;;;;;;;;8.30;99.90;;;;;;12460470;28;19926;-85
2022/09/30 00:51:06;;;;;;;;;;;8.30;99.90;;;;;;12493945;28;19933;-86
2022/09/30 00:57:08;;;;;;;;;;;8.10;99.90;;;;;;12493591;28;19936;-86
2022/09/30 01:03:09;;;;;;;;;;;8.30;99.90;;;;;;12488378;28;19929;-85
2022/09/30 01:09:11;;;;;;;;;;;8.20;99.90;;;;;;12485792;28;19925;-86
2022/09/30 01:15:13;;;;;;;;;;;8.20;99.90;;;;;;12491125;28;19925;-86
2022/09/30 01:21:33;;;;;;;;;;;8.10;99.90;;;;;;12485780;28;19929;-85
2022/09/30 01:27:46;;;;;;;;;;;8.20;99.90;;;;;;12479484;28;19925;-85
2022/09/30 01:34:03;;;;;;;;;;;8.30;99.90;;;;;;12472359;28;20486;-86
2022/09/30 01:40:05;;;;;;;;;;;8.10;99.90;;;;;;12489319;28;19961;-86
2022/09/30 01:46:25;;;;;;;;;;;8.10;99.90;;;;;;12476815;28;19933;-85
2022/09/30 01:52:32;;;;;;;;;;;8.10;99.90;;;;;;12469223;28;19932;-85
2022/09/30 01:58:43;;;;;;;;;;;8.00;99.90;;;;;;12476106;28;20519;-86
2022/09/30 02:04:51;;;;;;;;;;;8.10;99.90;;;;;;12469526;28;20374;-85
2022/09/30 02:11:01;;;;;;;;;;;8.10;99.90;;;;;;12472656;28;20420;-85
2022/09/30 02:17:06;;;;;;;;;;;8.10;99.90;;;;;;12469515;28;19925;-85
2022/09/30 02:23:16;;;;;;;;;;;8.00;99.90;;;;;;12467648;28;19925;-85
2022/09/30 02:29:21;;;;;;;;;;;7.80;99.90;;;;;;12464164;28;19933;-85
2022/09/30 02:35:34;;;;;;;;;;;7.70;99.90;;;;;;12477242;28;20435;-85
2022/09/30 02:41:38;;;;;;;;;;;7.70;99.90;;;;;;12462214;28;19933;-85
2022/09/30 02:47:43;;;;;;;;;;;7.70;99.90;;;;;;12460621;28;19933;-85
2022/09/30 02:53:51;;;;;;;;;;;7.50;99.90;;;;;;12456855;28;19925;-85
2022/09/30 02:59:53;;;;;;;;;;;7.60;99.90;;;;;;12460018;28;19936;-85
2022/09/30 03:05:55;;;;;;;;;;;7.60;99.90;;;;;;12454912;28;19929;-85
2022/09/30 03:12:04;;;;;;;;;;;7.60;99.90;;;;;;12467840;28;19933;-85
2022/09/30 03:18:22;;;;;;;;;;;7.60;99.90;;;;;;12466118;28;19929;-85
2022/09/30 03:24:29;;;;;;;;;;;7.50;99.90;;;;;;12466760;28;19929;-85
2022/09/30 03:30:32;;;;;;;;;;;7.40;99.90;;;;;;12476724;28;20004;-85
2022/09/30 03:36:38;;;;;;;;;;;7.10;99.90;;;;;;12462329;28;19925;-85
2022/09/30 03:42:43;;;;;;;;;;;7.00;99.90;;;;;;12462542;28;19930;-85
2022/09/30 03:48:45;;;;;;;;;;;7.00;99.90;;;;;;12455060;28;19936;-85
2022/09/30 03:54:49;;;;;;;;;;;6.90;99.90;;;;;;12477335;28;19926;-85
2022/09/30 04:00:52;;;;;;;;;;;6.90;99.90;;;;;;12465610;28;20308;-85
2022/09/30 04:06:54;;;;;;;;;;;6.70;99.90;;;;;;12462640;28;19929;-85
2022/09/30 04:12:56;;;;;;;;;;;6.70;99.90;;;;;;12474256;28;20072;-85
2022/09/30 04:18:58;;;;;;;;;;;6.70;99.90;;;;;;12456772;28;19932;-85
2022/09/30 04:25:00;;;;;;;;;;;6.80;99.90;;;;;;12457051;28;19932;-85
2022/09/30 04:31:02;;;;;;;;;;;6.80;99.90;;;;;;12469245;28;19936;-85
2022/09/30 04:37:04;;;;;;;;;;;6.90;99.90;;;;;;12454922;28;19929;-85
2022/09/30 04:43:11;;;;;;;;;;;6.90;99.90;;;;;;12482236;28;19936;-85
2022/09/30 04:49:13;;;;;;;;;;;6.90;99.90;;;;;;12465666;28;19925;-85
2022/09/30 04:55:14;;;;;;;;;;;6.90;99.90;;;;;;12470078;28;19930;-85
2022/09/30 05:01:17;;;;;;;;;;;7.10;99.90;;;;;;12479432;28;19925;-85
2022/09/30 05:07:18;;;;;;;;;;;7.00;99.90;;;;;;12466088;28;19955;-85
2022/09/30 05:13:20;;;;;;;;;;;7.00;99.90;;;;;;12468789;28;19925;-85
2022/09/30 05:19:21;;;;;;;;;;;6.80;99.90;;;;;;12469131;28;20373;-85
2022/09/30 05:25:23;;;;;;;;;;;6.90;99.90;;;;;;12468706;28;19932;-86
2022/09/30 05:31:25;;;;;;;;;;;7.00;99.90;;;;;;12468975;28;19964;-86
2022/09/30 05:37:27;;;;;;;;;;;6.80;99.90;;;;;;12477748;28;19964;-86
2022/09/30 05:43:29;;;;;;;;;;;6.70;99.90;;;;;;12469363;28;19933;-86
2022/09/30 05:49:33;;;;;;;;;;;6.60;99.90;;;;;;12460905;28;19926;-86
2022/09/30 05:55:34;;;;;;;;;;;6.90;99.90;;;;;;12466938;28;19937;-86
2022/09/30 06:01:39;;;;;;;;;;;6.80;99.90;;;;;;12482290;28;20379;-86
2022/09/30 06:07:41;;;;;;;;;;;6.70;99.90;;;;;;12468501;28;19933;-86
2022/09/30 06:13:43;;;;;;;;;;;6.50;99.90;;;;;;12466168;28;20362;-86
2022/09/30 06:19:45;;;;;;;;;;;6.60;99.90;;;;;;12480603;28;19931;-86
2022/09/30 06:25:50;;;;;;;;;;;6.80;99.90;;;;;;12463738;28;19925;-86
2022/09/30 06:31:52;;;;;;;;;;;6.60;99.90;;;;;;12469600;28;21078;-86
2022/09/30 06:37:53;;;;;;;;;;;6.40;99.90;;;;;;12465583;28;19926;-86
2022/09/30 06:43:55;;;;;;;;;;;6.60;99.90;;;;;;12457877;28;19933;-86
2022/09/30 06:50:10;;;;;;;;;;;6.50;99.90;;;;;;12460944;28;19926;-86
2022/09/30 06:56:25;;;;;;;;;;;6.60;99.90;;;;;;12461514;28;19925;-85
2022/09/30 07:02:28;;;;;;;;;;;6.70;99.90;;;;;;12471760;28;19926;-86
2022/09/30 07:08:31;;;;;;;;;;;6.80;99.90;;;;;;12472515;28;19972;-86
2022/09/30 07:14:34;;;;;;;;;;;6.70;99.90;;;;;;12477327;28;19925;-86
2022/09/30 07:20:36;;;;;;;;;;;6.70;99.90;;;;;;12483364;28;19948;-86
2022/09/30 07:26:39;;;;;;;;;;;6.70;99.90;;;;;;12472135;28;19925;-86
2022/09/30 07:32:42;;;;;;;;;;;6.90;99.90;;;;;;12450101;28;21352;-86
2022/09/30 07:38:45;;;;;;;;;;;7.00;99.90;;;;;;12461385;28;19932;-86
2022/09/30 07:44:47;;;;;;;;;;;7.20;99.90;;;;;;12470363;28;20076;-86
2022/09/30 07:50:52;;;;;;;;;;;7.40;99.90;;;;;;12457764;28;19936;-86
2022/09/30 07:56:54;;;;;;;;;;;7.40;99.90;;;;;;12466877;28;19952;-86
2022/09/30 08:03:11;;;;;;;;;;;7.70;99.90;;;;;;12464428;28;19932;-86
2022/09/30 08:09:14;;;;;;;;;;;7.80;99.90;;;;;;12468232;28;19929;-86
2022/09/30 08:15:16;;;;;;;;;;;7.90;99.90;;;;;;12470195;28;20328;-86
2022/09/30 08:21:17;;;;;;;;;;;8.80;99.90;;;;;;12482745;28;20378;-86
2022/09/30 08:27:19;;;;;;;;;;;9.40;99.90;;;;;;12466051;28;19925;-87
2022/09/30 08:33:21;;;;;;;;;;;9.80;99.90;;;;;;12463998;28;19988;-87
2022/09/30 08:39:22;;;;;;;;;;;10.10;99.90;;;;;;12475486;28;19940;-87
2022/09/30 08:45:39;;;;;;;;;;;10.40;99.90;;;;;;12459925;28;19925;-87
2022/09/30 08:51:45;;;;;;;;;;;10.60;99.90;;;;;;12469060;28;19975;-87
2022/09/30 08:57:47;;;;;;;;;;;11.00;99.90;;;;;;12456802;28;20281;-86
2022/09/30 09:03:48;;;;;;;;;;;11.30;99.90;;;;;;12470570;28;20381;-86
2022/09/30 09:10:05;;;;;;;;;;;11.40;99.90;;;;;;12472998;28;19941;-85
2022/09/30 09:16:30;;;;;;;;;;;11.60;99.90;;;;;;12475427;28;20277;-86
2022/09/30 09:22:33;;;;;;;;;;;12.00;99.90;;;;;;12478206;28;19936;-86
2022/09/30 09:28:44;;;;;;;;;;;12.10;99.90;;;;;;12469052;28;19925;-86
2022/09/30 09:34:54;;;;;;;;;;;12.40;99.90;;;;;;12474336;28;19936;-86
2022/09/30 09:41:11;;;;;;;;;;;12.50;99.90;;;;;;12466199;28;19925;-86
2022/09/30 09:47:14;;;;;;;;;;;12.90;99.90;;;;;;12477669;28;19964;-86
2022/09/30 09:53:25;;;;;;;;;;;13.10;99.90;;;;;;12457572;28;19929;-86
2022/09/30 09:59:26;;;;;;;;;;;13.30;99.90;;;;;;12474553;28;19925;-86
2022/09/30 10:05:31;;;;;;;;;;;13.40;99.90;;;;;;12483718;28;19948;-86
2022/09/30 10:11:32;;;;;;;;;;;13.70;99.90;;;;;;12475801;28;19928;-86
2022/09/30 10:17:35;;;;;;;;;;;13.90;99.90;;;;;;12457917;28;19925;-86
2022/09/30 10:23:38;;;;;;;;;;;14.10;99.90;;;;;;12471974;28;19925;-86
2022/09/30 10:29:46;;;;;;;;;;;14.10;99.90;;;;;;12469131;28;20638;-86
2022/09/30 10:35:49;;;;;;;;;;;14.40;99.90;;;;;;12458600;28;19925;-86
2022/09/30 10:42:08;;;;;;;;;;;14.50;99.90;;;;;;12472055;28;19929;-85
2022/09/30 10:48:16;;;;;;;;;;;14.60;99.90;;;;;;12456566;28;19930;-86
2022/09/30 10:54:34;;;;;;;;;;;14.70;99.90;;;;;;12473166;28;19925;-86
2022/09/30 11:00:36;;;;;;;;;;;14.70;99.90;;;;;;12473321;28;20262;-86
2022/09/30 11:06:38;;;;;;;;;;;14.90;99.90;;;;;;12468604;28;19925;-87
2022/09/30 11:12:47;;;;;;;;;;;15.40;99.90;;;;;;12474613;28;19925;-87
2022/09/30 11:18:52;;;;;;;;;;;15.50;99.90;;;;;;12456548;28;19929;-86
2022/09/30 11:24:56;;;;;;;;;;;15.50;99.90;;;;;;12466499;28;19936;-87
2022/09/30 11:31:10;;;;;;;;;;;15.80;99.90;;;;;;12474127;28;20420;-86
2022/09/30 11:37:17;;;;;;;;;;;15.20;99.90;;;;;;12465844;28;19952;-86
2022/09/30 11:43:32;;;;;;;;;;;15.30;99.90;;;;;;12470439;28;20377;-87
2022/09/30 11:49:39;;;;;;;;;;;14.90;99.90;;;;;;12471392;28;19926;-86
2022/09/30 11:56:00;;;;;;;;;;;15.40;99.90;;;;;;12466011;28;19925;-86
2022/09/30 12:02:03;;;;;;;;;;;15.60;99.90;;;;;;12484367;28;19925;-87
2022/09/30 12:08:07;;;;;;;;;;;15.70;99.90;;;;;;12470606;28;19955;-87
2022/09/30 12:14:15;;;;;;;;;;;15.90;99.90;;;;;;12497034;28;19925;-85
2022/09/30 12:20:29;;;;;;;;;;;16.10;99.90;;;;;;12471781;28;19926;-85
2022/09/30 12:26:31;;;;;;;;;;;16.10;99.90;;;;;;12468181;28;19940;-86
2022/09/30 12:32:52;;;;;;;;;;;15.40;99.90;;;;;;12489902;28;20315;-87
2022/09/30 12:39:01;;;;;;;;;;;15.10;99.90;;;;;;12484740;28;20570;-86
2022/09/30 12:45:08;;;;;;;;;;;15.20;99.90;;;;;;12472501;28;19929;-87
2022/09/30 12:51:18;;;;;;;;;;;16.10;99.90;;;;;;12516850;28;19913;-86
2022/09/30 12:57:25;;;;;;;;;;;16.00;99.90;;;;;;12537620;28;19959;-87
2022/09/30 13:03:27;;;;;;;;;;;15.70;99.90;;;;;;12538471;28;19941;-88
2022/09/30 13:09:30;;;;;;;;;;;16.20;99.90;;;;;;12531240;28;20571;-86
2022/09/30 13:15:31;;;;;;;;;;;16.50;99.90;;;;;;12496653;28;19929;-87
2022/09/30 13:21:33;;;;;;;;;;;16.00;99.90;;;;;;12482067;28;19932;-86
2022/09/30 13:27:36;;;;;;;;;;;16.10;99.90;;;;;;12472870;28;19937;-86
2022/09/30 13:33:40;;;;;;;;;;;16.00;99.90;;;;;;12485369;28;19925;-86
2022/09/30 13:39:44;;;;;;;;;;;16.10;99.90;;;;;;12469756;28;19925;-86
2022/09/30 13:45:48;;;;;;;;;;;15.70;99.90;;;;;;12475201;28;19933;-87
2022/09/30 13:51:51;;;;;;;;;;;15.40;99.90;;;;;;12453133;28;19932;-87
2022/09/30 13:58:03;;;;;;;;;;;15.60;99.90;;;;;;12479011;28;20393;-87
2022/09/30 14:04:24;;;;;;;;;;;15.70;99.90;;;;;;12474613;28;19933;-87
2022/09/30 14:10:37;;;;;;;;;;;15.70;99.90;;;;;;12484008;28;19925;-86
2022/09/30 14:16:39;;;;;;;;;;;15.70;99.90;;;;;;12479794;28;19929;-85
2022/09/30 14:22:41;;;;;;;;;;;15.50;99.90;;;;;;12475179;28;19926;-86
2022/09/30 14:28:47;;;;;;;;;;;15.60;99.90;;;;;;12473358;28;19944;-85
2022/09/30 14:34:49;;;;;;;;;;;15.50;99.90;;;;;;12470007;28;19929;-85
2022/09/30 14:40:51;;;;;;;;;;;15.50;99.90;;;;;;12458707;28;20372;-85
2022/09/30 14:46:59;;;;;;;;;;;15.30;99.90;;;;;;12457200;28;19934;-86
2022/09/30 14:53:02;;;;;;;;;;;15.10;99.90;;;;;;12462358;28;19925;-85
2022/09/30 14:59:17;;;;;;;;;;;15.00;99.90;;;;;;12472740;28;19929;-84
2022/09/30 15:05:19;;;;;;;;;;;15.20;99.90;;;;;;12461602;28;20370;-85
2022/09/30 15:11:24;;;;;;;;;;;14.90;99.90;;;;;;12459812;28;20290;-85
2022/09/30 15:17:35;;;;;;;;;;;14.70;99.90;;;;;;12475825;28;19929;-85
2022/09/30 15:23:38;;;;;;;;;;;14.70;99.90;;;;;;12470369;28;20506;-85
2022/09/30 15:29:52;;;;;;;;;;;14.80;99.90;;;;;;12474755;28;19932;-85
2022/09/30 15:36:00;;;;;;;;;;;14.90;99.90;;;;;;12456689;28;19934;-86
2022/09/30 15:42:03;;;;;;;;;;;14.90;99.90;;;;;;12471993;28;19940;-85
2022/09/30 15:48:08;;;;;;;;;;;15.00;99.90;;;;;;12454105;28;19925;-85
2022/09/30 15:54:13;;;;;;;;;;;15.00;99.90;;;;;;12455568;28;19925;-86
2022/09/30 16:00:34;;;;;;;;;;;14.90;99.90;;;;;;12460682;28;19936;-86
2022/09/30 16:06:56;;;;;;;;;;;14.80;99.90;;;;;;12460099;28;19933;-87
2022/09/30 16:12:58;;;;;;;;;;;14.70;99.90;;;;;;12461096;28;19930;-86
2022/09/30 16:19:01;;;;;;;;;;;14.50;99.90;;;;;;12468560;28;19925;-86
2022/09/30 16:25:09;;;;;;;;;;;14.30;99.90;;;;;;12460148;28;20526;-86
2022/09/30 16:31:12;;;;;;;;;;;14.00;99.90;;;;;;12481229;28;19933;-86
2022/09/30 16:37:17;;;;;;;;;;;13.70;99.90;;;;;;12475005;28;19964;-86
2022/09/30 16:43:18;;;;;;;;;;;13.60;99.90;;;;;;12475438;28;19932;-86
2022/09/30 16:49:20;;;;;;;;;;;13.50;99.90;;;;;;12467853;28;19932;-86
2022/09/30 16:55:24;;;;;;;;;;;13.30;99.90;;;;;;12479570;28;20339;-86
2022/09/30 17:01:26;;;;;;;;;;;13.10;99.90;;;;;;12487030;28;19928;-86
2022/09/30 17:07:29;;;;;;;;;;;12.80;99.90;;;;;;12469187;28;19925;-86
2022/09/30 17:13:31;;;;;;;;;;;12.60;99.90;;;;;;12463363;28;19929;-86
2022/09/30 17:19:34;;;;;;;;;;;12.50;99.90;;;;;;12471648;28;19929;-86
2022/09/30 17:25:40;;;;;;;;;;;12.40;99.90;;;;;;12473624;28;19925;-86
2022/09/30 17:31:42;;;;;;;;;;;12.30;99.90;;;;;;12467902;28;19932;-86
2022/09/30 17:37:44;;;;;;;;;;;12.10;99.90;;;;;;12467878;28;20294;-86
2022/09/30 17:43:47;;;;;;;;;;;12.00;99.90;;;;;;12467253;28;19929;-86
2022/09/30 17:49:49;;;;;;;;;;;11.80;99.90;;;;;;12471608;28;19929;-86
2022/09/30 17:56:12;;;;;;;;;;;11.70;99.90;;;;;;12453785;28;19929;-86
2022/09/30 18:02:16;;;;;;;;;;;11.70;99.90;;;;;;12477061;28;19925;-86
2022/09/30 18:08:18;;;;;;;;;;;11.60;99.90;;;;;;12489734;28;19925;-86
2022/09/30 18:14:19;;;;;;;;;;;11.60;99.90;;;;;;12485138;28;19932;-86
2022/09/30 18:20:21;;;;;;;;;;;11.50;99.90;;;;;;12465166;28;19932;-86
2022/09/30 18:26:27;;;;;;;;;;;11.50;99.90;;;;;;12473881;28;19987;-86
2022/09/30 18:32:35;;;;;;;;;;;11.60;99.90;;;;;;12460597;28;19933;-86
2022/09/30 18:38:37;;;;;;;;;;;11.60;99.90;;;;;;12464438;28;19925;-85
2022/09/30 18:44:38;;;;;;;;;;;11.50;99.90;;;;;;12467881;28;19925;-85
2022/09/30 18:50:40;;;;;;;;;;;11.60;99.90;;;;;;12470998;28;19933;-86
2022/09/30 18:56:43;;;;;;;;;;;11.50;99.90;;;;;;12463172;28;19929;-86
2022/09/30 19:02:44;;;;;;;;;;;11.50;99.90;;;;;;12481779;28;20459;-85
2022/09/30 19:08:47;;;;;;;;;;;11.30;99.90;;;;;;12458303;28;19929;-85
2022/09/30 19:14:49;;;;;;;;;;;11.30;99.90;;;;;;12476627;28;19936;-85
2022/09/30 19:20:50;;;;;;;;;;;11.20;99.90;;;;;;12468154;28;19925;-85
2022/09/30 19:26:52;;;;;;;;;;;11.30;99.90;;;;;;12463476;28;19929;-85
2022/09/30 19:32:59;;;;;;;;;;;11.20;99.90;;;;;;12465783;28;19929;-85
2022/09/30 19:39:01;;;;;;;;;;;11.20;99.90;;;;;;12472128;28;19929;-85
2022/09/30 19:45:14;;;;;;;;;;;11.20;99.90;;;;;;12466585;28;19925;-85
2022/09/30 19:51:16;;;;;;;;;;;11.20;99.90;;;;;;12456994;28;19925;-85
2022/09/30 19:57:18;;;;;;;;;;;11.30;99.90;;;;;;12463032;28;19936;-84
2022/09/30 20:03:21;;;;;;;;;;;11.40;99.90;;;;;;12477988;28;20469;-85
2022/09/30 20:09:23;;;;;;;;;;;11.50;99.90;;;;;;12479303;28;20392;-84
2022/09/30 20:21:48;;;;;;;;;;;11.70;99.90;;;;;;12477360;28;19960;-84
2022/09/30 20:27:50;;;;;;;;;;;11.70;99.90;;;;;;12466999;28;20395;-84
2022/09/30 20:33:56;;;;;;;;;;;11.70;99.90;;;;;;12462052;28;19972;-84
2022/09/30 20:39:58;;;;;;;;;;;11.60;99.90;;;;;;12468404;28;20393;-84
2022/09/30 20:46:04;;;;;;;;;;;11.50;99.90;;;;;;12469337;28;19925;-84
2022/09/30 20:52:05;;;;;;;;;;;11.60;99.90;;;;;;12469490;28;19933;-85
2022/09/30 20:58:07;;;;;;;;;;;11.60;99.90;;;;;;12467494;28;20374;-84
2022/09/30 21:04:09;;;;;;;;;;;11.50;99.90;;;;;;12483324;28;20277;-84
2022/09/30 21:10:11;;;;;;;;;;;11.50;99.90;;;;;;12466420;28;19929;-83
2022/09/30 21:16:14;;;;;;;;;;;11.60;99.90;;;;;;12462551;28;20370;-84
2022/09/30 21:22:16;;;;;;;;;;;11.70;99.90;;;;;;12481791;28;20340;-85
2022/09/30 21:28:17;;;;;;;;;;;11.60;99.90;;;;;;12481278;28;19925;-84
2022/09/30 21:34:19;;;;;;;;;;;11.50;99.90;;;;;;12466177;28;20003;-84
2022/09/30 21:40:21;;;;;;;;;;;11.50;99.90;;;;;;12458216;28;19936;-85
2022/09/30 21:46:22;;;;;;;;;;;11.40;99.90;;;;;;12473256;28;19926;-84
2022/09/30 21:52:24;;;;;;;;;;;11.40;99.90;;;;;;12463385;28;19925;-83
2022/09/30 21:58:32;;;;;;;;;;;11.40;99.90;;;;;;12473277;28;20270;-85
2022/09/30 22:04:36;;;;;;;;;;;11.40;99.90;;;;;;12484306;28;20300;-83
2022/09/30 22:10:41;;;;;;;;;;;11.40;99.90;;;;;;12480362;28;20362;-84
2022/09/30 22:16:43;;;;;;;;;;;11.50;99.90;;;;;;12472063;28;19925;-84
2022/09/30 22:22:48;;;;;;;;;;;11.60;99.90;;;;;;12475764;28;19960;-84
2022/09/30 22:28:54;;;;;;;;;;;11.50;99.90;;;;;;12477587;28;19948;-84
2022/09/30 22:41:16;;;;;;;;;;;11.70;99.90;;;;;;12465298;28;19933;-84
2022/09/30 22:47:18;;;;;;;;;;;11.80;99.90;;;;;;12465322;28;20340;-85
2022/09/30 22:53:20;;;;;;;;;;;11.80;99.90;;;;;;12471180;28;20307;-85
2022/09/30 22:59:22;;;;;;;;;;;11.70;99.90;;;;;;12478453;28;19935;-83
2022/09/30 23:05:25;;;;;;;;;;;11.60;99.90;;;;;;12474864;28;20339;-84
2022/09/30 23:11:27;;;;;;;;;;;11.50;99.90;;;;;;12464087;28;19932;-83
2022/09/30 23:17:28;;;;;;;;;;;11.50;99.90;;;;;;12451989;28;19925;-84
2022/09/30 23:23:31;;;;;;;;;;;11.50;99.90;;;;;;12476807;28;20270;-84
2022/09/30 23:29:32;;;;;;;;;;;11.50;99.90;;;;;;12478322;28;19929;-84
2022/09/30 23:35:34;;;;;;;;;;;11.40;99.90;;;;;;12457336;28;19929;-83
2022/09/30 23:41:36;;;;;;;;;;;11.60;99.90;;;;;;12471310;28;19933;-84
2022/09/30 23:47:38;;;;;;;;;;;11.60;99.90;;;;;;12481049;28;19929;-83
2022/09/30 23:53:41;;;;;;;;;;;11.60;99.90;;;;;;12474721;28;19929;-84
2022/09/30 23:59:42;;;;;;;;;;;11.60;99.90;;;;;;12482898;28;19925;-84
